Ashburn, Missouri
Current Conditions -  °F | °C
As of 4:15 AM on Thursday 29 Jan 2015 (Local Time) from KHAE Reporting Station
Overcast Overcast  
Wind Chill: 32°   Ceiling: 1700
Heat Index: 41°   Visibility: 10mi
Dew Point: 32°   Wind: 20mph
Humidity: 70%   Direction: 310°NW
Pressure: 29.86"   Gusts: 33mph
Location:  39.54°N, 91.17°W
Report Text: KHAE 291015Z AUTO 31017G29KT 10SM OVC017 05/00 A2986 RMK AO2
Loading
Personal Weather Stations






























Interactive Weather Map New forecast layout! Learn more

10-Day Weather Forecast

Advertisements
Track Severe Weather on mobile